Time;durP1;ratioP1;P1;durP2;ratioP2;P2;SDS_P1;SDS_P2;PMS_P1;PMS_P2;Temp;Humidity;BMP_temperature;BMP_pressure;BME280_temperature;BME280_humidity;BME280_pressure;Samples;Min_cycle;Max_cycle;Signal;HPM_P1;HPM_P2
2023/02/03 00:01:35;;;;;;;3.40;1.40;;;;;;;3.63;58.61;99568.19;5093123;28;20426;-96
2023/02/03 00:04:06;;;;;;;4.15;1.30;;;;;;;3.62;58.30;99577.22;5091954;28;20028;-96
2023/02/03 00:06:36;;;;;;;1.63;1.23;;;;;;;3.69;58.59;99593.94;5109599;28;20066;-96
2023/02/03 00:09:10;;;;;;;5.57;1.60;;;;;;;3.63;58.56;99594.81;5109034;28;20024;-96
2023/02/03 00:11:37;;;;;;;3.58;1.40;;;;;;;3.41;58.30;99573.91;5091622;28;20048;-96
2023/02/03 00:14:30;;;;;;;3.10;1.55;;;;;;;3.57;58.98;99604.50;5107987;28;20103;-96
2023/02/03 00:17:05;;;;;;;3.90;1.30;;;;;;;3.60;59.18;99600.59;5096755;28;20057;-96
2023/02/03 00:19:34;;;;;;;2.17;1.30;;;;;;;3.67;59.51;99595.22;5110072;28;20040;-96
2023/02/03 00:22:03;;;;;;;3.15;1.63;;;;;;;3.46;58.69;99567.13;5088333;28;20502;-96
2023/02/03 00:24:35;;;;;;;6.35;1.77;;;;;;;3.55;59.29;99585.28;5078591;28;20032;-95
2023/02/03 00:27:18;;;;;;;6.22;2.00;;;;;;;3.35;58.32;99561.47;5078870;28;20036;-96
2023/02/03 00:29:44;;;;;;;3.72;1.30;;;;;;;3.33;59.54;99571.50;5073400;28;20032;-96
2023/02/03 00:32:17;;;;;;;3.17;1.63;;;;;;;3.44;58.69;99568.16;5040983;28;20043;-96
2023/02/03 00:34:44;;;;;;;4.07;1.58;;;;;;;3.38;59.47;99558.38;5040744;28;20044;-96
2023/02/03 00:37:19;;;;;;;4.07;1.38;;;;;;;3.13;59.48;99545.03;5056086;28;20028;-96
2023/02/03 00:39:45;;;;;;;2.15;1.38;;;;;;;3.52;59.35;99585.69;5040244;28;20043;-96
2023/02/03 00:42:15;;;;;;;2.60;1.35;;;;;;;3.51;59.23;99576.09;5056428;28;20024;-96
2023/02/03 00:44:54;;;;;;;2.55;1.55;;;;;;;3.44;58.22;99573.50;5057888;28;20487;-96
2023/02/03 00:47:25;;;;;;;1.38;1.13;;;;;;;3.53;57.99;99586.50;5040195;28;20021;-96
2023/02/03 00:50:02;;;;;;;2.13;1.23;;;;;;;3.44;58.75;99570.00;5040315;28;20032;-96
2023/02/03 00:52:34;;;;;;;2.85;1.15;;;;;;;3.47;57.67;99555.47;5058825;28;20039;-96
2023/02/03 00:55:17;;;;;;;1.45;1.00;;;;;;;3.74;57.45;99580.81;5039866;28;20056;-96
2023/02/03 00:57:56;;;;;;;2.65;1.27;;;;;;;3.63;57.24;99568.19;5017902;28;20037;-96
2023/02/03 01:00:26;;;;;;;1.88;1.20;;;;;;;3.62;57.83;99566.56;5032445;28;20013;-96
2023/02/03 01:03:03;;;;;;;2.10;1.10;;;;;;;3.77;58.02;99588.34;5057578;28;20443;-96
2023/02/03 01:05:49;;;;;;;2.03;1.38;;;;;;;3.80;58.44;99600.44;5041594;28;20037;-96
2023/02/03 01:08:22;;;;;;;2.63;1.20;;;;;;;3.80;58.36;99590.59;5060718;28;20040;-96
2023/02/03 01:10:58;;;;;;;2.05;1.13;;;;;;;3.73;58.84;99583.69;5057395;28;20072;-96
2023/02/03 01:13:25;;;;;;;2.42;1.20;;;;;;;3.83;57.54;99597.31;5041604;28;20025;-96
2023/02/03 01:16:03;;;;;;;1.27;1.05;;;;;;;3.76;57.57;99577.94;5039581;28;20036;-96
2023/02/03 01:18:30;;;;;;;2.05;1.20;;;;;;;3.69;57.46;99563.84;5042528;28;20028;-96
2023/02/03 01:21:16;;;;;;;4.13;1.23;;;;;;;3.88;57.75;99583.34;5072078;28;20036;-96
2023/02/03 01:24:01;;;;;;;1.95;1.10;;;;;;;3.87;56.90;99581.72;5040704;28;20099;-96
2023/02/03 01:26:33;;;;;;;1.80;1.20;;;;;;;4.06;56.22;99610.00;5072210;28;20029;-96
2023/02/03 01:28:59;;;;;;;2.55;1.30;;;;;;;4.08;56.12;99605.28;5038472;28;20040;-96
2023/02/03 01:31:41;;;;;;;2.45;1.33;;;;;;;4.01;57.43;99592.03;5037822;28;20048;-96
2023/02/03 01:34:22;;;;;;;1.88;1.23;;;;;;;4.17;56.86;99619.13;5075878;28;20051;-96
2023/02/03 01:36:48;;;;;;;1.38;0.98;;;;;;;3.99;56.09;99567.47;5093335;28;20032;-96
2023/02/03 01:39:25;;;;;;;2.22;1.20;;;;;;;3.96;57.41;99580.41;5076349;28;20043;-96
2023/02/03 01:41:53;;;;;;;1.92;1.08;;;;;;;4.20;57.10;99600.03;5076773;28;20028;-96
2023/02/03 01:44:42;;;;;;;3.10;1.30;;;;;;;4.28;56.94;99612.28;5075238;28;20032;-96
2023/02/03 01:47:30;;;;;;;2.90;1.13;;;;;;;4.15;57.48;99627.38;5091811;28;20036;-96
2023/02/03 01:50:14;;;;;;;4.38;1.30;;;;;;;4.14;57.36;99633.72;5093928;28;20031;-96
2023/02/03 01:52:46;;;;;;;2.20;1.30;;;;;;;4.01;58.71;99601.88;5093092;28;20090;-96
2023/02/03 01:55:19;;;;;;;2.55;1.25;;;;;;;4.18;57.55;99626.09;5076801;28;20043;-96
2023/02/03 01:57:55;;;;;;;1.38;0.90;;;;;;;4.28;57.61;99626.41;5076929;28;20069;-96
2023/02/03 02:00:28;;;;;;;1.83;0.95;;;;;;;4.34;57.41;99622.06;5077291;28;20065;-96
2023/02/03 02:03:01;;;;;;;1.60;1.10;;;;;;;4.20;56.95;99602.72;5092084;28;20024;-96
2023/02/03 02:05:54;;;;;;;4.18;1.42;;;;;;;4.19;57.47;99598.41;5091380;28;20032;-96
2023/02/03 02:08:23;;;;;;;3.40;1.33;;;;;;;4.07;57.01;99606.31;5078363;28;20024;-96
2023/02/03 02:10:53;;;;;;;3.78;1.20;;;;;;;4.14;56.39;99607.06;5071067;28;20048;-96
2023/02/03 02:13:38;;;;;;;2.45;1.08;;;;;;;3.89;58.36;99592.97;5055943;28;20093;-96
2023/02/03 02:16:21;;;;;;;2.58;1.35;;;;;;;4.08;56.61;99621.25;5085301;28;20033;-96
2023/02/03 02:19:04;;;;;;;4.07;1.48;;;;;;;3.89;57.86;99606.28;5056869;28;20037;-96
2023/02/03 02:21:55;;;;;;;2.03;1.10;;;;;;;3.97;57.71;99614.81;5087844;28;20464;-96
2023/02/03 02:24:45;;;;;;;3.00;1.20;;;;;;;4.00;57.31;99625.03;5088337;28;20040;-96
2023/02/03 02:27:30;;;;;;;2.33;1.30;;;;;;;4.08;57.02;99615.13;5088562;28;20267;-96
2023/02/03 02:30:17;;;;;;;2.40;1.20;;;;;;;4.00;57.21;99611.69;5069482;28;20040;-96
2023/02/03 02:33:20;;;;;;;2.92;1.20;;;;;;;3.94;57.38;99612.56;5069068;28;20048;-96
2023/02/03 02:36:03;;;;;;;3.00;1.10;;;;;;;3.87;57.36;99603.03;5086746;28;20032;-96
2023/02/03 02:38:35;;;;;;;3.05;1.08;;;;;;;3.88;58.32;99616.16;5070112;28;20035;-96
2023/02/03 02:41:08;;;;;;;;;;;;;;;3.86;58.27;99612.88;5087321;28;20020;-95
2023/02/03 02:43:48;;;;;;;2.15;1.30;;;;;;;3.78;59.30;99619.28;5069780;28;19909;-96
2023/02/03 02:46:27;;;;;;;1.77;1.20;;;;;;;3.55;60.05;99622.53;5069557;28;20033;-96
2023/02/03 02:49:14;;;;;;;2.72;1.42;;;;;;;3.40;58.21;99576.78;5054111;28;20107;-96
2023/02/03 02:51:47;;;;;;;4.53;1.80;;;;;;;3.48;58.79;99604.97;5053034;28;20025;-96
2023/02/03 02:54:30;;;;;;;6.03;1.60;;;;;;;3.34;59.06;99590.94;5053704;28;20096;-96
2023/02/03 02:59:52;;;;;;;2.78;1.63;;;;;;;3.64;59.38;99626.56;5063285;28;20063;-95
2023/02/03 03:02:24;;;;;;;2.55;1.35;;;;;;;3.62;58.63;99622.50;5057669;28;20039;-96
2023/02/03 03:04:55;;;;;;;;;;;;;;;3.71;58.28;99628.34;5073809;28;20037;-96
2023/02/03 03:07:32;;;;;;;2.75;1.10;;;;;;;3.44;58.98;99610.75;5071186;28;19909;-95
2023/02/03 03:10:14;;;;;;;3.17;1.20;;;;;;;3.35;59.06;99605.91;5068643;28;20052;-96
2023/02/03 03:12:50;;;;;;;2.80;1.40;;;;;;;3.41;59.45;99629.81;5074902;28;20044;-96
2023/02/03 03:18:44;;;;;;;3.17;1.40;;;;;;;3.42;58.78;99628.78;5090415;28;20051;-96
2023/02/03 03:21:36;;;;;;;2.25;1.33;;;;;;;3.62;59.14;99641.13;5076862;28;20024;-96
2023/02/03 03:24:22;;;;;;;;;;;;;;;3.54;59.20;99657.38;5076452;28;20027;-96
2023/02/03 03:27:29;;;;;;;1.80;1.13;;;;;;;3.58;59.05;99671.88;5091463;28;19912;-96
2023/02/03 03:30:36;;;;;;;4.40;1.10;;;;;;;3.59;59.77;99668.16;5090869;28;20076;-96
2023/02/03 03:33:08;;;;;;;4.93;1.15;;;;;;;3.56;60.43;99679.25;5090651;28;20039;-96
2023/02/03 03:35:55;;;;;;;3.92;1.20;;;;;;;3.42;59.78;99649.25;5073401;28;20027;-96
2023/02/03 03:38:34;;;;;;;2.70;1.45;;;;;;;3.73;59.27;99680.38;5073746;28;20497;-96
2023/02/03 03:41:22;;;;;;;3.40;1.33;;;;;;;3.79;59.80;99684.81;5088406;28;20027;-96
2023/02/03 03:43:59;;;;;;;6.00;1.40;;;;;;;3.64;60.39;99663.84;5089165;28;20024;-96
2023/02/03 03:46:49;;;;;;;3.45;1.38;;;;;;;3.78;60.07;99655.78;5073488;28;20020;-95
2023/02/03 03:49:19;;;;;;;2.58;1.50;;;;;;;3.89;59.10;99656.91;5082042;28;20100;-96
2023/02/03 03:52:03;;;;;;;2.70;1.45;;;;;;;3.89;59.01;99647.06;5089173;28;20040;-96
2023/02/03 03:54:35;;;;;;;2.75;1.58;;;;;;;3.91;59.27;99652.97;5072919;28;20486;-96
2023/02/03 03:57:27;;;;;;;2.35;1.70;;;;;;;4.11;59.69;99681.28;5075147;28;20028;-96
2023/02/03 04:00:01;;;;;;;3.95;1.60;;;;;;;4.07;59.23;99683.59;5083832;28;20039;-96
2023/02/03 04:02:26;;;;;;;3.97;1.85;;;;;;;3.93;59.75;99666.91;5070842;28;20026;-96
2023/02/03 04:04:55;;;;;;;8.45;2.08;;;;;;;3.87;60.08;99677.63;5069709;28;20068;-96
2023/02/03 04:07:27;;;;;;;2.63;1.65;;;;;;;3.98;60.25;99693.69;5069679;28;20028;-96
2023/02/03 04:09:56;;;;;;;5.63;1.77;;;;;;;3.98;60.39;99687.56;5085019;28;20024;-96
2023/02/03 04:12:22;;;;;;;3.53;1.45;;;;;;;3.99;60.10;99675.88;5069205;28;20048;-96
2023/02/03 04:14:51;;;;;;;3.75;1.75;;;;;;;4.03;60.86;99677.88;5068141;28;20036;-96
2023/02/03 04:17:18;;;;;;;2.95;1.65;;;;;;;3.94;59.26;99689.81;5067329;28;20015;-95
2023/02/03 04:20:01;;;;;;;3.97;1.75;;;;;;;3.94;60.69;99687.16;5093712;28;20032;-96
2023/02/03 04:22:33;;;;;;;6.28;1.75;;;;;;;4.08;60.12;99708.38;5071496;28;20095;-96
2023/02/03 04:24:59;;;;;;;5.90;1.90;;;;;;;4.04;60.25;99700.81;5069643;28;20028;-96
2023/02/03 04:27:25;;;;;;;3.47;1.60;;;;;;;3.99;60.48;99686.53;5085559;28;20034;-96
2023/02/03 04:29:51;;;;;;;4.72;1.63;;;;;;;4.00;59.62;99707.59;5088638;28;20027;-96
2023/02/03 04:32:18;;;;;;;2.15;1.58;;;;;;;4.02;60.77;99704.72;5090179;28;20043;-96
2023/02/03 04:34:59;;;;;;;7.10;1.80;;;;;;;4.08;60.28;99732.38;5112779;28;20030;-95
2023/02/03 04:37:28;;;;;;;3.15;1.80;;;;;;;3.99;60.56;99710.50;5098260;28;20111;-96
2023/02/03 04:39:57;;;;;;;2.88;1.77;;;;;;;3.96;60.03;99717.06;5092789;28;20020;-96
2023/02/03 04:42:25;;;;;;;7.20;1.65;;;;;;;4.23;59.48;99744.34;5106496;28;20019;-96
2023/02/03 04:45:00;;;;;;;3.97;1.73;;;;;;;4.19;59.35;99727.16;5091925;28;20154;-96
2023/02/03 04:47:26;;;;;;;3.47;1.45;;;;;;;4.32;58.95;99752.88;5096890;28;20020;-96
2023/02/03 04:50:09;;;;;;;5.35;1.90;;;;;;;4.22;58.97;99720.56;5090887;28;20031;-95
2023/02/03 04:52:38;;;;;;;2.10;1.33;;;;;;;4.40;59.06;99754.44;5096642;28;20081;-96
2023/02/03 04:55:04;;;;;;;3.40;1.90;;;;;;;4.35;59.95;99751.63;5091798;28;20027;-96
2023/02/03 04:57:36;;;;;;;3.03;1.98;;;;;;;4.33;59.54;99743.84;5106468;28;20087;-96
2023/02/03 05:00:02;;;;;;;3.58;1.77;;;;;;;4.35;59.00;99754.28;5079122;28;20062;-95
2023/02/03 05:02:27;;;;;;;4.35;2.00;;;;;;;4.24;58.76;99735.31;5077582;28;20024;-96
2023/02/03 05:04:56;;;;;;;2.95;1.92;;;;;;;4.41;58.77;99748.09;5068268;28;20031;-95
2023/02/03 05:07:30;;;;;;;3.35;2.00;;;;;;;4.49;58.50;99753.16;5067832;28;20026;-96
2023/02/03 05:09:59;;;;;;;4.40;2.10;;;;;;;4.54;59.83;99757.81;5077264;28;20025;-96
2023/02/03 05:12:32;;;;;;;3.25;2.10;;;;;;;4.56;59.42;99748.56;5089999;28;20123;-95
2023/02/03 05:15:01;;;;;;;4.40;2.40;;;;;;;4.56;59.83;99775.22;5093103;28;20177;-95
2023/02/03 05:17:31;;;;;;;4.38;1.90;;;;;;;4.54;58.98;99766.63;5054805;28;20122;-95
2023/02/03 05:20:20;;;;;;;4.28;2.42;;;;;;;4.33;59.47;99743.03;5082868;28;20028;-95
2023/02/03 05:22:46;;;;;;;8.25;5.35;;;;;;;4.40;59.46;99749.09;5074572;28;20482;-95
2023/02/03 05:25:11;;;;;;;11.60;2.90;;;;;;;4.33;59.98;99741.16;5071579;28;20023;-95
2023/02/03 05:27:38;;;;;;;5.20;2.03;;;;;;;4.32;60.44;99747.56;5062983;28;20016;-96
2023/02/03 05:30:04;;;;;;;4.53;1.92;;;;;;;4.49;60.12;99747.81;5073979;28;20020;-94
2023/02/03 05:32:30;;;;;;;5.10;2.38;;;;;;;4.42;59.15;99741.72;5096514;28;20028;-95
2023/02/03 05:35:05;;;;;;;3.83;2.13;;;;;;;4.42;59.27;99760.38;5063550;28;20102;-95
2023/02/03 05:37:35;;;;;;;4.40;2.40;;;;;;;4.47;59.44;99770.41;5078024;28;20024;-96
2023/02/03 05:42:48;;;;;;;3.63;2.30;;;;;;;4.20;59.66;99751.97;5099331;28;20047;-95
2023/02/03 05:45:34;;;;;;;5.10;2.72;;;;;;;4.24;59.27;99766.47;5099227;28;20023;-96
2023/02/03 06:05:23;;;;;;;5.57;2.70;;;;;;;4.39;59.43;99798.16;5034766;28;20045;-96
2023/02/03 06:08:08;;;;;;;3.97;2.10;;;;;;;4.33;59.17;99785.69;5016351;28;20076;-95
2023/02/03 06:22:27;;;;;;;8.87;3.57;;;;;;;4.54;59.95;99830.63;5061552;28;20052;-96
2023/02/03 06:24:55;;;;;;;7.50;3.00;;;;;;;4.44;59.39;99809.78;5010177;28;20021;-96
2023/02/03 06:27:21;;;;;;;5.63;3.13;;;;;;;4.54;59.86;99835.94;5006130;28;20084;-95
2023/02/03 06:29:47;;;;;;;7.35;2.88;;;;;;;4.49;59.93;99835.00;5009155;28;20044;-95
2023/02/03 06:32:16;;;;;;;6.85;2.95;;;;;;;4.54;59.91;99841.28;5011149;28;20025;-96
2023/02/03 06:34:42;;;;;;;5.07;2.78;;;;;;;4.41;59.75;99810.22;5025161;28;20326;-92
2023/02/03 06:37:10;;;;;;;6.55;2.92;;;;;;;4.62;59.58;99822.34;5015499;28;20059;-94
2023/02/03 06:39:35;;;;;;;3.92;2.80;;;;;;;4.73;59.08;99814.66;5021187;28;20085;-96
2023/02/03 06:42:01;;;;;;;7.65;3.20;;;;;;;4.72;59.19;99808.53;5010586;28;20475;-95
2023/02/03 06:44:26;;;;;;;4.80;2.92;;;;;;;4.86;57.86;99827.91;5013418;28;20025;-93
2023/02/03 06:46:52;;;;;;;6.25;2.78;;;;;;;4.94;58.12;99824.97;5031205;28;20024;-94
2023/02/03 06:49:53;;;;;;;5.75;2.80;;;;;;;5.04;58.45;99838.63;5005475;28;20097;-93
2023/02/03 06:52:21;;;;;;;5.45;3.20;;;;;;;4.82;58.31;99810.69;5028185;28;20055;-93
2023/02/03 06:54:55;;;;;;;6.38;4.10;;;;;;;4.92;58.37;99812.84;5014090;28;20025;-96
2023/02/03 06:57:23;;;;;;;4.88;2.70;;;;;;;4.82;58.03;99808.84;5020724;28;20028;-96
2023/02/03 06:59:49;;;;;;;9.85;3.05;;;;;;;4.76;58.18;99815.06;5067180;28;20089;-95
2023/02/03 07:03:04;;;;;;;4.97;2.80;;;;;;;4.69;59.01;99826.81;5043479;28;20550;-96
2023/02/03 07:05:49;;;;;;;6.32;2.78;;;;;;;4.76;59.83;99844.41;5008571;28;20033;-96
2023/02/03 07:33:31;;;;;;;4.20;2.53;;;;;;;4.71;59.16;99881.59;681614;22;20319;-91
2023/02/03 07:36:00;;;;;;;4.90;3.10;;;;;;;4.68;58.68;99868.69;5026743;28;20042;-96
2023/02/03 07:38:29;;;;;;;5.13;2.65;;;;;;;4.59;59.20;99851.31;5013747;28;20041;-96
2023/02/03 07:40:54;;;;;;;4.10;2.50;;;;;;;4.68;59.20;99863.34;5011112;28;20030;-95
2023/02/03 07:57:56;;;;;;;12.52;3.00;;;;;;;5.30;56.96;99908.78;5050151;28;20053;-96
2023/02/03 08:00:34;;;;;;;4.60;2.28;;;;;;;5.21;56.00;99905.59;4996351;28;20029;-96
2023/02/03 08:03:04;;;;;;;5.47;2.63;;;;;;;5.21;56.27;99899.44;5019334;28;20026;-96
2023/02/03 08:05:59;;;;;;;6.85;3.40;;;;;;;5.47;55.43;99933.88;5026510;28;20105;-96
2023/02/03 08:08:33;;;;;;;4.95;2.53;;;;;;;5.29;56.17;99927.69;5005657;28;20154;-96
2023/02/03 08:11:35;;;;;;;3.65;2.45;;;;;;;5.30;55.77;99914.13;5004550;28;20047;-96
2023/02/03 08:14:09;;;;;;;5.80;2.80;;;;;;;5.57;55.37;99932.56;5020049;28;20041;-96
2023/02/03 08:16:44;;;;;;;5.90;2.50;;;;;;;5.62;55.12;99927.34;5026802;28;20037;-96
2023/02/03 08:24:15;;;;;;;4.32;2.85;;;;;;;5.52;54.20;99906.50;5026765;28;20048;-95
2023/02/03 08:26:43;;;;;;;4.63;2.80;;;;;;;5.61;54.21;99945.22;5010788;28;20084;-94
2023/02/03 08:29:11;;;;;;;7.47;2.85;;;;;;;5.49;54.75;99919.47;5020769;28;20073;-96
2023/02/03 08:31:44;;;;;;;4.85;2.63;;;;;;;5.36;55.33;99885.72;5038001;28;20025;-96
2023/02/03 08:34:20;;;;;;;5.75;2.80;;;;;;;5.43;54.97;99892.59;5026848;28;20045;-96
2023/02/03 08:36:47;;;;;;;5.20;2.80;;;;;;;5.49;54.83;99892.78;5035065;28;20029;-96
2023/02/03 08:39:37;;;;;;;;;;;;;;;;;;;;;
2023/02/03 08:42:35;;;;;;;3.47;2.20;;;;;;;5.47;54.09;99885.78;5021034;28;20061;-96
2023/02/03 08:48:22;;;;;;;4.55;2.90;;;;;;;5.76;54.69;99934.19;5005224;28;20044;-96
2023/02/03 08:55:57;;;;;;;4.75;2.47;;;;;;;6.03;54.53;99925.88;5083418;28;20041;-96
2023/02/03 08:58:24;;;;;;;6.50;2.70;;;;;;;5.98;55.04;99933.78;5031771;28;20068;-95
2023/02/03 09:01:45;;;;;;;4.20;2.70;;;;;;;6.07;53.77;99924.38;5051503;28;20092;-96
2023/02/03 09:04:41;;;;;;;4.00;2.30;;;;;;;5.77;53.96;99898.41;5093229;28;20033;-96
2023/02/03 09:07:07;;;;;;;2.72;1.98;;;;;;;5.88;53.43;99934.25;5052890;28;20036;-95
2023/02/03 09:18:17;;;;;;;9.98;3.30;;;;;;;6.03;53.38;99963.31;5285107;23;20763;-96
2023/02/03 09:23:52;;;;;;;5.88;2.75;;;;;;;6.02;53.33;99957.16;5071458;28;20069;-96
2023/02/03 09:26:28;;;;;;;21.50;8.07;;;;;;;6.00;53.20;99945.88;5009662;28;20042;-94
2023/02/03 09:28:53;;;;;;;4.70;2.97;;;;;;;6.26;53.78;99954.59;4973292;28;20103;-95
2023/02/03 09:31:19;;;;;;;6.35;2.97;;;;;;;6.37;52.75;99932.44;4977870;28;20030;-94
2023/02/03 09:34:00;;;;;;;7.72;4.32;;;;;;;6.66;52.95;99968.25;4981737;28;20456;-95
2023/02/03 09:37:05;;;;;;;4.72;2.90;;;;;;;6.28;52.23;99942.63;4989977;28;20062;-96
2023/02/03 09:39:32;;;;;;;6.43;2.80;;;;;;;6.32;52.50;99942.97;4899463;29;20028;-96
2023/02/03 09:42:35;;;;;;;6.57;3.97;;;;;;;6.29;52.52;99938.09;4912801;29;20036;-96
2023/02/03 09:45:42;;;;;;;3.50;2.60;;;;;;;6.44;52.22;99945.72;4861727;29;20224;-96
2023/02/03 09:48:52;;;;;;;5.03;2.60;;;;;;;6.36;52.36;99938.00;4885394;29;20035;-95
2023/02/03 09:52:12;;;;;;;3.40;2.60;;;;;;;6.34;52.09;99943.56;4934985;29;20130;-96
2023/02/03 09:55:18;;;;;;;7.38;3.17;;;;;;;6.48;51.77;99953.06;4942056;29;20068;-96
2023/02/03 09:57:47;;;;;;;6.35;3.47;;;;;;;6.47;51.58;99938.06;4981064;28;20600;-96
2023/02/03 10:00:44;;;;;;;5.55;3.38;;;;;;;6.66;52.04;99944.16;4979521;28;20556;-96
2023/02/03 10:03:42;;;;;;;3.95;2.45;;;;;;;7.00;51.08;99954.38;4946452;29;20031;-96
2023/02/03 10:06:37;;;;;;;4.32;2.63;;;;;;;7.16;51.11;99942.97;4952223;28;20035;-96
2023/02/03 10:10:01;;;;;;;;;;;;;;;;;;;;;
2023/02/03 10:13:06;;;;;;;4.07;2.60;;;;;;;7.41;49.64;99939.25;4983811;28;20086;-96
2023/02/03 10:27:01;;;;;;;3.70;2.83;;;;;;;7.56;49.51;99938.78;5040024;28;20462;-94
2023/02/03 10:38:04;;;;;;;4.05;2.58;;;;;;;6.93;50.29;99900.94;5041808;28;20029;-96
2023/02/03 10:46:38;;;;;;;6.47;3.40;;;;;;;7.40;51.11;99903.59;5066136;28;20035;-96
2023/02/03 10:49:10;;;;;;;5.35;2.95;;;;;;;7.48;49.41;99923.88;5029406;28;20287;-96
2023/02/03 10:52:36;;;;;;;5.07;3.10;;;;;;;7.41;50.45;99929.34;5046521;28;20033;-96
2023/02/03 10:55:07;;;;;;;3.63;2.17;;;;;;;7.03;50.19;99900.34;5063039;28;20035;-96
2023/02/03 10:57:57;;;;;;;4.97;2.47;;;;;;;6.76;51.04;99894.59;5062394;28;20028;-96
2023/02/03 11:00:39;;;;;;;4.50;2.78;;;;;;;6.88;51.34;99898.94;5018604;28;20479;-96
2023/02/03 11:03:24;;;;;;;4.32;2.78;;;;;;;6.97;51.41;99882.53;5042133;28;20035;-96
2023/02/03 11:06:21;;;;;;;6.90;3.63;;;;;;;7.11;50.82;99873.22;5027238;28;20037;-95
2023/02/03 11:08:58;;;;;;;5.55;3.28;;;;;;;7.43;50.42;99881.72;5042088;28;20099;-95
2023/02/03 11:11:50;;;;;;;5.13;3.15;;;;;;;7.47;48.79;99890.06;5030126;28;20039;-96
2023/02/03 11:14:53;;;;;;;;;;;;;;;;;;;;;
2023/02/03 11:17:22;;;;;;;5.45;3.30;;;;;;;7.26;49.24;99900.38;5061157;28;20436;-94
2023/02/03 11:20:27;;;;;;;4.32;3.17;;;;;;;6.87;49.02;99875.09;5026347;28;20038;-96
2023/02/03 11:23:23;;;;;;;4.35;2.80;;;;;;;6.88;50.39;99882.88;5056708;28;20040;-96
2023/02/03 11:25:51;;;;;;;11.23;3.75;;;;;;;6.72;51.54;99867.47;5044348;28;20016;-94
2023/02/03 11:29:18;;;;;;;7.35;2.80;;;;;;;6.81;50.80;99843.91;5043131;28;20036;-96
2023/02/03 11:31:46;;;;;;;4.45;3.13;;;;;;;7.01;51.06;99852.38;5029000;28;20048;-94
2023/02/03 11:34:32;;;;;;;4.97;2.85;;;;;;;7.08;51.24;99849.59;5028396;28;20080;-96
2023/02/03 11:37:55;;;;;;;3.72;2.88;;;;;;;7.27;49.35;99855.63;5052158;28;20036;-96
2023/02/03 11:40:32;;;;;;;4.00;2.53;;;;;;;7.41;48.25;99862.38;4972663;28;20059;-96
2023/02/03 11:43:19;;;;;;;4.40;2.35;;;;;;;7.36;48.32;99853.41;5042615;28;20057;-96
2023/02/03 11:46:27;;;;;;;11.80;2.80;;;;;;;7.49;48.47;99867.38;5052842;28;20029;-96
2023/02/03 12:03:12;;;;;;;7.10;2.90;;;;;;;8.18;47.51;99852.34;5007299;28;20034;-96
2023/02/03 12:05:40;;;;;;;4.28;2.53;;;;;;;8.47;46.60;99834.38;5041766;28;20044;-93
2023/02/03 12:27:56;;;;;;;3.95;2.63;;;;;;;7.65;47.18;99849.72;5046776;28;20507;-96
2023/02/03 12:30:53;;;;;;;;;;;;;;;;;;;;;
2023/02/03 12:33:30;;;;;;;5.85;3.10;;;;;;;7.38;47.97;99827.19;4957025;28;20094;-96
2023/02/03 12:36:26;;;;;;;7.63;3.45;;;;;;;7.33;48.61;99824.44;4956041;28;20050;-95
2023/02/03 12:54:37;;;;;;;5.35;3.05;;;;;;;7.39;50.08;99837.69;5239454;22;20064;-95
2023/02/03 13:16:37;;;;;;;4.47;2.50;;;;;;;7.34;48.52;99828.72;5065744;28;20064;-95
2023/02/03 13:19:45;;;;;;;4.78;2.80;;;;;;;7.55;49.13;99846.03;5025167;28;20033;-96
2023/02/03 13:22:40;;;;;;;;;;;;;;;;;;;;;
2023/02/03 13:25:37;;;;;;;4.63;2.83;;;;;;;7.28;49.01;99806.34;5023659;28;20528;-96
2023/02/03 13:28:42;;;;;;;6.80;3.17;;;;;;;7.53;49.04;99850.81;5004994;28;20046;-96
2023/02/03 13:31:37;;;;;;;5.35;3.15;;;;;;;7.15;50.48;99802.06;5000820;28;20021;-95
2023/02/03 13:34:21;;;;;;;6.15;3.83;;;;;;;7.57;49.65;99838.56;4979421;28;20072;-96
2023/02/03 13:37:08;;;;;;;4.30;3.25;;;;;;;7.56;47.61;99839.63;5003131;28;20025;-96
2023/02/03 13:40:03;;;;;;;7.20;3.40;;;;;;;7.56;48.68;99828.91;5002202;28;20026;-96
2023/02/03 13:42:39;;;;;;;5.85;2.92;;;;;;;7.24;47.24;99803.34;5003483;28;20072;-95
2023/02/03 13:45:33;;;;;;;;;;;;;;;;;;;;;
2023/02/03 13:48:13;;;;;;;5.93;3.20;;;;;;;7.20;47.60;99799.53;5018050;28;20477;-93
2023/02/03 13:50:38;;;;;;;10.38;3.58;;;;;;;7.28;48.44;99801.00;5000725;28;20055;-93
2023/02/03 13:53:15;;;;;;;4.53;3.47;;;;;;;7.33;47.16;99811.03;4998895;28;20025;-93
2023/02/03 13:55:57;;;;;;;4.55;2.95;;;;;;;7.18;47.05;99793.59;4973114;28;20033;-94
2023/02/03 13:58:27;;;;;;;5.43;2.80;;;;;;;7.09;47.84;99798.47;5003476;28;20112;-94
2023/02/03 14:00:55;;;;;;;8.68;3.60;;;;;;;7.28;47.80;99807.19;5003458;28;20033;-96
2023/02/03 14:03:26;;;;;;;6.53;3.28;;;;;;;7.23;46.54;99800.91;5019561;28;20128;-94
2023/02/03 14:05:55;;;;;;;5.35;2.72;;;;;;;7.12;46.11;99782.97;5019500;28;20466;-93
2023/02/03 14:08:58;;;;;;;7.45;2.80;;;;;;;7.12;45.97;99785.66;5006094;28;20036;-96
2023/02/03 14:14:51;;;;;;;4.78;2.60;;;;;;;7.01;47.06;99819.44;5061403;28;20059;-96
2023/02/03 14:18:13;;;;;;;;;;;;;;;;;;;;;
2023/02/03 14:21:18;;;;;;;5.00;3.10;;;;;;;6.52;48.29;99784.88;5061712;28;20112;-96
2023/02/03 14:23:56;;;;;;;5.30;3.05;;;;;;;6.51;48.72;99780.56;5028523;28;20033;-95
2023/02/03 14:26:52;;;;;;;5.50;3.42;;;;;;;6.70;48.93;99796.53;5010513;28;20043;-96
2023/02/03 14:29:46;;;;;;;12.27;5.35;;;;;;;6.49;48.70;99774.63;4998284;28;20111;-96
2023/02/03 14:32:15;;;;;;;6.15;3.67;;;;;;;6.68;48.13;99802.94;5009129;28;20033;-96
2023/02/03 14:34:43;;;;;;;6.25;3.03;;;;;;;6.48;48.49;99797.91;4991230;28;20129;-95
2023/02/03 14:37:24;;;;;;;9.65;5.07;;;;;;;6.41;47.51;99791.03;5011649;28;20029;-96
2023/02/03 14:40:30;;;;;;;7.55;4.07;;;;;;;6.64;48.21;99819.66;5005475;28;20025;-95
2023/02/03 14:43:47;;;;;;;7.05;4.05;;;;;;;6.64;48.27;99825.00;5024880;28;20025;-96
2023/02/03 14:46:28;;;;;;;9.55;3.63;;;;;;;6.66;48.15;99822.91;5024833;28;20495;-95
2023/02/03 14:49:03;;;;;;;9.63;3.93;;;;;;;6.52;48.99;99800.13;5004388;28;20025;-96
2023/02/03 14:52:12;;;;;;;7.57;4.18;;;;;;;6.75;47.57;99820.75;5023301;28;20279;-96
2023/02/03 14:55:10;;;;;;;10.90;6.45;;;;;;;6.59;47.89;99806.97;5040067;28;20100;-96
2023/02/03 14:58:15;;;;;;;7.90;4.10;;;;;;;6.56;48.36;99802.09;5036607;28;20032;-96
2023/02/03 15:00:51;;;;;;;6.28;4.22;;;;;;;6.68;46.99;99804.75;5016525;28;20031;-96
2023/02/03 15:03:29;;;;;;;6.57;4.10;;;;;;;6.56;47.39;99807.47;5008230;28;20024;-96
2023/02/03 15:06:33;;;;;;;8.35;4.10;;;;;;;6.47;47.18;99790.09;5025003;28;20024;-96
2023/02/03 15:08:59;;;;;;;5.45;3.53;;;;;;;6.44;47.36;99799.41;5041327;28;20075;-96
2023/02/03 15:11:51;;;;;;;5.90;4.00;;;;;;;6.21;48.78;99792.16;5010738;28;20035;-94
2023/02/03 15:14:35;;;;;;;8.85;3.45;;;;;;;6.23;48.17;99803.44;4982817;28;20033;-94
2023/02/03 15:17:20;;;;;;;;;;;;;;;;;;;;;
2023/02/03 15:20:32;;;;;;;9.32;4.57;;;;;;;6.37;47.65;99833.47;5007887;28;20120;-96
2023/02/03 15:22:58;;;;;;;7.65;4.13;;;;;;;6.06;47.90;99805.97;5007449;28;20112;-96
2023/02/03 15:25:32;;;;;;;8.65;4.03;;;;;;;6.05;47.65;99808.84;4977585;28;20148;-95
2023/02/03 15:28:12;;;;;;;11.05;4.82;;;;;;;6.06;47.61;99813.16;4987649;28;20021;-95
2023/02/03 15:30:40;;;;;;;10.95;4.72;;;;;;;6.15;47.47;99829.69;4975888;28;20064;-95
2023/02/03 15:33:09;;;;;;;6.05;4.00;;;;;;;5.85;46.85;99803.75;4974908;28;20420;-94
2023/02/03 15:35:35;;;;;;;26.17;13.55;;;;;;;5.79;46.92;99797.47;4982827;28;20033;-95
2023/02/03 15:38:09;;;;;;;7.68;4.95;;;;;;;5.59;47.44;99792.38;4970995;28;20045;-96
2023/02/03 15:40:48;;;;;;;18.35;9.85;;;;;;;5.57;47.34;99810.50;4982891;28;20443;-94
2023/02/03 15:43:21;;;;;;;18.88;9.15;;;;;;;5.35;47.42;99787.97;4982092;28;20056;-95
2023/02/03 15:46:18;;;;;;;10.70;6.60;;;;;;;5.54;46.50;99840.34;4982870;28;20104;-95
2023/02/03 15:49:07;;;;;;;6.70;5.03;;;;;;;5.37;48.08;99828.59;5000909;28;20030;-96
2023/02/03 15:51:43;;;;;;;10.30;6.25;;;;;;;5.19;47.73;99797.41;4992450;28;20111;-96
2023/02/03 15:54:11;;;;;;;8.38;5.32;;;;;;;5.42;47.71;99826.91;4989456;28;20033;-95
2023/02/03 15:56:55;;;;;;;6.22;4.40;;;;;;;5.20;48.09;99810.50;5023932;28;20083;-95
2023/02/03 15:59:59;;;;;;;9.43;5.63;;;;;;;5.30;47.86;99822.53;4992337;28;20021;-96
2023/02/03 16:02:28;;;;;;;12.15;6.32;;;;;;;5.18;47.45;99795.75;5007918;28;20029;-96
2023/02/03 16:04:56;;;;;;;13.20;6.55;;;;;;;5.23;47.54;99801.25;5007296;28;20097;-96
2023/02/03 16:07:30;;;;;;;15.80;6.40;;;;;;;5.28;48.29;99804.06;4990247;28;20559;-96
2023/02/03 16:10:02;;;;;;;16.27;8.45;;;;;;;5.26;48.03;99811.47;4992695;28;20056;-96
2023/02/03 16:12:31;;;;;;;16.33;7.53;;;;;;;5.10;48.80;99801.38;5006071;28;20480;-96